Tropical Cyclones
[Index]
Main Index Home Page Stock Weather Photos Extreme Storms Discussion Storm News and Storm Chasing Reports Tropical Cyclones / Hurricanes / Typhoons Weather Data and Links Wild Fires / Bushfires Weather Observation Techniques Weather Picture Catalogue Tornado Pictures and Reports Stock Video Footage and DVDs for sale
Season 1985-1986 Tropical Cyclone MANU Track Map
Season 1985-1986 Summaries: [BoM-AU] [JTWC-AU] [JTWC-SIO] [JTWC-SPAC] [JTWC-SH]
<<- Previous TC | BoM 1985-1986 Season | Next TC ->>

click for intensity scale information  Lat/long Grid: Show Hide

 Date Labels: Show Hide

Bureau of Meteorology Tropical Cyclone Data

Name: MANU
Number: 692 / 198586_13

21 Apr 1986 00:00 UTC to 27 Apr 1986 00:00 UTC

    date/time    lat    long    hPa   cat  kts
1986-04-21 00    8.0   156.0   1005         8          
1986-04-21 06    8.2   156.0   1003         16          
1986-04-21 12    8.3   156.0   1004         12          
1986-04-21 18    8.5   156.0   1004         12          
1986-04-22 00    8.8   156.0   1005         12          
1986-04-22 06    9.2   155.8   1003         14          
1986-04-22 12    9.6   155.4   1004         12          
1986-04-22 18   10.0   155.0   1003         12          
1986-04-23 00   10.4   154.5   1004         14          
1986-04-23 06   11.0   154.0   1000         21          
1986-04-23 12   11.7   153.3    995    1    35          
1986-04-23 18   12.2   152.2    991    1    35          
1986-04-24 00   12.8   151.0    985    2    43          
1986-04-24 06   13.2   150.1    976    2    56          
1986-04-24 12   13.4   149.5    970    3    62          
1986-04-24 18   13.7   148.9    974    2    60          
1986-04-25 00   14.0   148.3    980    2    49          
1986-04-25 06   14.3   147.7    987    1    37          
1986-04-25 12   14.6   147.1    991    1    37          
1986-04-25 18   14.9   146.6    994    1    35          
1986-04-26 00   15.2   146.0    996         35          
1986-04-26 06   15.4   145.5    998         31          
1986-04-26 12   15.6   145.2   1002         27          
1986-04-26 18   15.8   144.9   1005         27          
1986-04-27 00   16.0   144.6   1007         12          
Winds are 10-min average.

Tropical cyclone tracks developed by Michael Bath using data from the Bureau of Meteorology and Google Maps.


[Australian Severe Weather index] [Copyright Notice] [Email Contacts] [Search This Site] [Privacy Policy]
Document: tropical_cyclone_manu.htm Updated: 30 May 2013